sensor_id;sensor_type;location;lat;lon;timestamp;pressure;altitude;pressure_sealevel;temperature;humidity
71795;BME280;59641;45.188;5.712;2024-02-28T00:01:52;98789.13;;;13.24;51.93
71795;BME280;59641;45.188;5.712;2024-02-28T00:04:18;98788.81;;;13.20;51.84
71795;BME280;59641;45.188;5.712;2024-02-28T00:06:44;98787.75;;;13.21;51.76
71795;BME280;59641;45.188;5.712;2024-02-28T00:09:12;98800.13;;;13.22;51.87
71795;BME280;59641;45.188;5.712;2024-02-28T00:11:46;98803.41;;;13.25;51.97
71795;BME280;59641;45.188;5.712;2024-02-28T00:14:14;98807.16;;;13.24;52.23
71795;BME280;59641;45.188;5.712;2024-02-28T00:16:49;98808.78;;;13.25;52.11
71795;BME280;59641;45.188;5.712;2024-02-28T00:19:15;98804.47;;;13.24;52.04
71795;BME280;59641;45.188;5.712;2024-02-28T00:21:42;98802.34;;;13.26;52.12
71795;BME280;59641;45.188;5.712;2024-02-28T00:24:08;98813.13;;;13.26;52.12
71795;BME280;59641;45.188;5.712;2024-02-28T00:26:33;98817.44;;;13.27;52.04
71795;BME280;59641;45.188;5.712;2024-02-28T00:28:58;98824.50;;;13.28;51.83
71795;BME280;59641;45.188;5.712;2024-02-28T00:31:24;98825.03;;;13.30;51.97
71795;BME280;59641;45.188;5.712;2024-02-28T00:33:50;98827.72;;;13.30;51.97
71795;BME280;59641;45.188;5.712;2024-02-28T00:36:15;98829.38;;;13.31;52.02
71795;BME280;59641;45.188;5.712;2024-02-28T00:38:41;98830.19;;;13.31;52.07
71795;BME280;59641;45.188;5.712;2024-02-28T00:41:06;98831.28;;;13.30;51.99
71795;BME280;59641;45.188;5.712;2024-02-28T00:43:32;98844.75;;;13.30;52.12
71795;BME280;59641;45.188;5.712;2024-02-28T00:45:57;98840.66;;;13.28;52.15
71795;BME280;59641;45.188;5.712;2024-02-28T00:48:24;98840.88;;;13.26;52.19
71795;BME280;59641;45.188;5.712;2024-02-28T00:50:49;98849.78;;;13.27;52.23
71795;BME280;59641;45.188;5.712;2024-02-28T00:53:14;98852.25;;;13.28;52.35
71795;BME280;59641;45.188;5.712;2024-02-28T00:55:40;98849.78;;;13.27;52.33
71795;BME280;59641;45.188;5.712;2024-02-28T00:58:05;98850.84;;;13.26;52.29
71795;BME280;59641;45.188;5.712;2024-02-28T01:00:30;98861.88;;;13.24;52.29
71795;BME280;59641;45.188;5.712;2024-02-28T01:02:55;98869.38;;;13.22;52.37
71795;BME280;59641;45.188;5.712;2024-02-28T01:05:21;98861.78;;;13.19;52.17
71795;BME280;59641;45.188;5.712;2024-02-28T01:07:46;98868.50;;;13.16;52.13
71795;BME280;59641;45.188;5.712;2024-02-28T01:10:11;98865.47;;;13.13;52.20
71795;BME280;59641;45.188;5.712;2024-02-28T01:12:37;98877.56;;;13.10;52.53
71795;BME280;59641;45.188;5.712;2024-02-28T01:15:03;98876.75;;;13.10;52.60
71795;BME280;59641;45.188;5.712;2024-02-28T01:17:28;98885.91;;;13.09;52.63
71795;BME280;59641;45.188;5.712;2024-02-28T01:19:54;98889.41;;;13.09;52.83
71795;BME280;59641;45.188;5.712;2024-02-28T01:22:19;98884.84;;;13.10;52.82
71795;BME280;59641;45.188;5.712;2024-02-28T01:24:44;98879.44;;;13.10;52.62
71795;BME280;59641;45.188;5.712;2024-02-28T01:27:09;98887.53;;;13.10;52.69
71795;BME280;59641;45.188;5.712;2024-02-28T01:29:35;98888.59;;;13.09;52.55
71795;BME280;59641;45.188;5.712;2024-02-28T01:32:01;98894.56;;;13.11;52.74
71795;BME280;59641;45.188;5.712;2024-02-28T01:34:26;98900.19;;;13.09;52.98
71795;BME280;59641;45.188;5.712;2024-02-28T01:36:51;98901.81;;;13.10;52.66
71795;BME280;59641;45.188;5.712;2024-02-28T01:39:17;98894.00;;;13.09;52.81
71795;BME280;59641;45.188;5.712;2024-02-28T01:41:53;98898.53;;;13.08;52.87
71795;BME280;59641;45.188;5.712;2024-02-28T01:44:18;98897.72;;;13.08;53.14
71795;BME280;59641;45.188;5.712;2024-02-28T01:46:44;98907.69;;;13.07;52.98
71795;BME280;59641;45.188;5.712;2024-02-28T01:49:09;98920.09;;;13.08;53.01
71795;BME280;59641;45.188;5.712;2024-02-28T01:51:35;98912.84;;;13.09;53.09
71795;BME280;59641;45.188;5.712;2024-02-28T01:54:01;98916.13;;;13.11;52.99
71795;BME280;59641;45.188;5.712;2024-02-28T01:56:26;98917.97;;;13.10;52.95
71795;BME280;59641;45.188;5.712;2024-02-28T01:58:52;98921.97;;;13.08;53.13
71795;BME280;59641;45.188;5.712;2024-02-28T02:01:19;98919.53;;;13.06;52.86
71795;BME280;59641;45.188;5.712;2024-02-28T02:03:44;98916.28;;;13.04;52.94
71795;BME280;59641;45.188;5.712;2024-02-28T02:06:09;98924.94;;;13.06;53.29
71795;BME280;59641;45.188;5.712;2024-02-28T02:08:36;98916.59;;;13.08;53.31
71795;BME280;59641;45.188;5.712;2024-02-28T02:11:02;98929.00;;;13.09;53.26
71795;BME280;59641;45.188;5.712;2024-02-28T02:13:27;98927.34;;;13.08;53.31
71795;BME280;59641;45.188;5.712;2024-02-28T02:15:53;98921.72;;;13.09;53.14
71795;BME280;59641;45.188;5.712;2024-02-28T02:18:18;98919.03;;;13.09;53.33
71795;BME280;59641;45.188;5.712;2024-02-28T02:20:44;98919.28;;;13.08;53.28
71795;BME280;59641;45.188;5.712;2024-02-28T02:23:14;98925.16;;;13.05;53.30
71795;BME280;59641;45.188;5.712;2024-02-28T02:25:46;98924.34;;;13.04;53.19
71795;BME280;59641;45.188;5.712;2024-02-28T02:28:11;98925.91;;;13.00;53.09
71795;BME280;59641;45.188;5.712;2024-02-28T02:30:38;98919.38;;;12.96;53.31
71795;BME280;59641;45.188;5.712;2024-02-28T02:33:04;98929.03;;;12.92;53.47
71795;BME280;59641;45.188;5.712;2024-02-28T02:35:29;98927.13;;;12.92;53.52
71795;BME280;59641;45.188;5.712;2024-02-28T02:37:55;98921.75;;;12.92;53.46
71795;BME280;59641;45.188;5.712;2024-02-28T02:40:20;98926.34;;;12.92;53.70
71795;BME280;59641;45.188;5.712;2024-02-28T02:42:45;98924.69;;;12.91;53.71
71795;BME280;59641;45.188;5.712;2024-02-28T02:45:11;98928.75;;;12.93;53.56
71795;BME280;59641;45.188;5.712;2024-02-28T02:47:36;98928.53;;;12.95;53.78
71795;BME280;59641;45.188;5.712;2024-02-28T02:50:02;98925.84;;;12.95;53.68
71795;BME280;59641;45.188;5.712;2024-02-28T02:52:27;98939.28;;;12.95;53.92
71795;BME280;59641;45.188;5.712;2024-02-28T02:54:52;98937.91;;;12.92;53.61
71795;BME280;59641;45.188;5.712;2024-02-28T02:57:17;98941.41;;;12.93;53.53
71795;BME280;59641;45.188;5.712;2024-02-28T02:59:43;98951.94;;;12.94;53.62
71795;BME280;59641;45.188;5.712;2024-02-28T03:02:08;98948.69;;;12.92;53.55
71795;BME280;59641;45.188;5.712;2024-02-28T03:04:34;98958.88;;;12.90;53.58
71795;BME280;59641;45.188;5.712;2024-02-28T03:06:59;98961.81;;;12.89;53.89
71795;BME280;59641;45.188;5.712;2024-02-28T03:09:24;98968.03;;;12.89;53.75
71795;BME280;59641;45.188;5.712;2024-02-28T03:11:50;98963.44;;;12.90;53.84
71795;BME280;59641;45.188;5.712;2024-02-28T03:14:15;98966.16;;;12.90;53.59
71795;BME280;59641;45.188;5.712;2024-02-28T03:16:42;98967.44;;;12.87;53.81
71795;BME280;59641;45.188;5.712;2024-02-28T03:19:07;98966.38;;;12.88;53.67
71795;BME280;59641;45.188;5.712;2024-02-28T03:21:33;98970.72;;;12.89;53.62
71795;BME280;59641;45.188;5.712;2024-02-28T03:23:58;98978.81;;;12.89;53.71
71795;BME280;59641;45.188;5.712;2024-02-28T03:26:23;98975.03;;;12.90;53.94
71795;BME280;59641;45.188;5.712;2024-02-28T03:28:49;98979.34;;;12.91;53.95
71795;BME280;59641;45.188;5.712;2024-02-28T03:31:14;98987.19;;;12.93;53.88
71795;BME280;59641;45.188;5.712;2024-02-28T03:33:39;98986.13;;;12.94;54.13
71795;BME280;59641;45.188;5.712;2024-02-28T03:36:05;98991.84;;;12.97;53.89
71795;BME280;59641;45.188;5.712;2024-02-28T03:38:30;98998.53;;;12.95;53.96
71795;BME280;59641;45.188;5.712;2024-02-28T03:40:55;98988.81;;;12.94;54.39
71795;BME280;59641;45.188;5.712;2024-02-28T03:43:21;98996.91;;;12.94;54.20
71795;BME280;59641;45.188;5.712;2024-02-28T03:45:46;99003.34;;;12.93;54.02
71795;BME280;59641;45.188;5.712;2024-02-28T03:48:11;99007.94;;;12.92;54.61
71795;BME280;59641;45.188;5.712;2024-02-28T03:50:37;98996.09;;;12.93;54.58
71795;BME280;59641;45.188;5.712;2024-02-28T03:53:03;98996.09;;;12.93;54.50
71795;BME280;59641;45.188;5.712;2024-02-28T03:55:28;99005.22;;;12.92;54.57
71795;BME280;59641;45.188;5.712;2024-02-28T03:57:54;99009.22;;;12.90;55.00
71795;BME280;59641;45.188;5.712;2024-02-28T04:00:19;99008.16;;;12.91;54.99
71795;BME280;59641;45.188;5.712;2024-02-28T04:02:44;99014.63;;;12.90;54.85
71795;BME280;59641;45.188;5.712;2024-02-28T04:05:10;99011.13;;;12.89;54.79
71795;BME280;59641;45.188;5.712;2024-02-28T04:07:36;99020.00;;;12.90;54.97
71795;BME280;59641;45.188;5.712;2024-02-28T04:10:01;99017.31;;;12.90;55.02
71795;BME280;59641;45.188;5.712;2024-02-28T04:12:26;99017.06;;;12.91;55.23
71795;BME280;59641;45.188;5.712;2024-02-28T04:14:52;99024.91;;;12.93;55.18
71795;BME280;59641;45.188;5.712;2024-02-28T04:17:17;99033.78;;;12.93;55.18
71795;BME280;59641;45.188;5.712;2024-02-28T04:19:42;99028.16;;;12.95;55.30
71795;BME280;59641;45.188;5.712;2024-02-28T04:22:08;99032.47;;;12.96;55.12
71795;BME280;59641;45.188;5.712;2024-02-28T04:24:33;99040.56;;;12.96;55.09
71795;BME280;59641;45.188;5.712;2024-02-28T04:26:58;99036.25;;;12.95;55.42
71795;BME280;59641;45.188;5.712;2024-02-28T04:29:25;99035.09;;;12.91;55.60
71795;BME280;59641;45.188;5.712;2024-02-28T04:31:50;99033.47;;;12.90;55.22
71795;BME280;59641;45.188;5.712;2024-02-28T04:34:15;99033.47;;;12.90;55.19
71795;BME280;59641;45.188;5.712;2024-02-28T04:36:41;99034.78;;;12.87;55.34
71795;BME280;59641;45.188;5.712;2024-02-28T04:39:06;99032.31;;;12.86;55.24
71795;BME280;59641;45.188;5.712;2024-02-28T04:41:33;99031.16;;;12.82;55.01
71795;BME280;59641;45.188;5.712;2024-02-28T04:43:59;99039.72;;;12.78;55.29
71795;BME280;59641;45.188;5.712;2024-02-28T04:46:24;99041.84;;;12.76;55.05
71795;BME280;59641;45.188;5.712;2024-02-28T04:48:49;99050.97;;;12.75;55.21
71795;BME280;59641;45.188;5.712;2024-02-28T04:51:16;99028.63;;;12.75;55.38
71795;BME280;59641;45.188;5.712;2024-02-28T04:53:44;99039.41;;;12.75;55.39
71795;BME280;59641;45.188;5.712;2024-02-28T04:56:09;99048.88;;;12.77;55.10
71795;BME280;59641;45.188;5.712;2024-02-28T04:58:36;99052.59;;;12.76;55.06
71795;BME280;59641;45.188;5.712;2024-02-28T05:01:01;99055.78;;;12.73;54.97
71795;BME280;59641;45.188;5.712;2024-02-28T05:03:26;99067.06;;;12.70;55.40
71795;BME280;59641;45.188;5.712;2024-02-28T05:05:52;99080.50;;;12.70;55.18
71795;BME280;59641;45.188;5.712;2024-02-28T05:08:19;99087.50;;;12.71;55.49
71795;BME280;59641;45.188;5.712;2024-02-28T05:10:45;99084.59;;;12.73;55.37
71795;BME280;59641;45.188;5.712;2024-02-28T05:13:10;99082.72;;;12.73;54.97
71795;BME280;59641;45.188;5.712;2024-02-28T05:15:35;99091.38;;;12.75;55.36
71795;BME280;59641;45.188;5.712;2024-02-28T05:18:01;99095.22;;;12.79;55.29
71795;BME280;59641;45.188;5.712;2024-02-28T05:20:26;99098.72;;;12.80;55.10
71795;BME280;59641;45.188;5.712;2024-02-28T05:22:51;99097.66;;;12.81;54.87
71795;BME280;59641;45.188;5.712;2024-02-28T05:25:17;99105.16;;;12.79;54.81
71795;BME280;59641;45.188;5.712;2024-02-28T05:27:42;99108.34;;;12.76;54.98
71795;BME280;59641;45.188;5.712;2024-02-28T05:30:08;99116.91;;;12.73;54.83
71795;BME280;59641;45.188;5.712;2024-02-28T05:32:33;99119.59;;;12.73;54.84
71795;BME280;59641;45.188;5.712;2024-02-28T05:34:59;99113.94;;;12.74;54.82
71795;BME280;59641;45.188;5.712;2024-02-28T05:37:25;99123.91;;;12.74;55.05
71795;BME280;59641;45.188;5.712;2024-02-28T05:39:50;99127.66;;;12.73;55.00
71795;BME280;59641;45.188;5.712;2024-02-28T05:42:15;99126.00;;;12.72;54.92
71795;BME280;59641;45.188;5.712;2024-02-28T05:44:49;99120.31;;;12.68;54.87
71795;BME280;59641;45.188;5.712;2024-02-28T05:47:14;99121.25;;;12.62;54.94
71795;BME280;59641;45.188;5.712;2024-02-28T05:49:40;99131.91;;;12.57;54.96
71795;BME280;59641;45.188;5.712;2024-02-28T05:52:05;99120.56;;;12.55;54.89
71795;BME280;59641;45.188;5.712;2024-02-28T05:54:31;99123.75;;;12.52;55.15
71795;BME280;59641;45.188;5.712;2024-02-28T05:56:56;99125.75;;;12.45;55.13
71795;BME280;59641;45.188;5.712;2024-02-28T05:59:21;99133.72;;;12.40;55.22
71795;BME280;59641;45.188;5.712;2024-02-28T06:01:47;99133.94;;;12.38;55.21
71795;BME280;59641;45.188;5.712;2024-02-28T06:04:12;99140.41;;;12.37;55.08
71795;BME280;59641;45.188;5.712;2024-02-28T06:06:38;99139.00;;;12.34;55.17
71795;BME280;59641;45.188;5.712;2024-02-28T06:09:03;99139.81;;;12.35;55.09
71795;BME280;59641;45.188;5.712;2024-02-28T06:11:28;99154.78;;;12.31;55.27
71795;BME280;59641;45.188;5.712;2024-02-28T06:13:54;99156.06;;;12.28;55.16
71795;BME280;59641;45.188;5.712;2024-02-28T06:16:19;99161.34;;;12.23;55.52
71795;BME280;59641;45.188;5.712;2024-02-28T06:18:45;99178.19;;;12.19;55.44
71795;BME280;59641;45.188;5.712;2024-02-28T06:21:10;99173.28;;;12.15;55.16
71795;BME280;59641;45.188;5.712;2024-02-28T06:23:35;99176.69;;;12.11;55.39
71795;BME280;59641;45.188;5.712;2024-02-28T06:26:01;99167.69;;;12.05;55.71
71795;BME280;59641;45.188;5.712;2024-02-28T06:28:26;99190.59;;;12.08;55.47
71795;BME280;59641;45.188;5.712;2024-02-28T06:30:52;99189.44;;;12.04;55.75
71795;BME280;59641;45.188;5.712;2024-02-28T06:33:17;99183.81;;;12.05;55.66
71795;BME280;59641;45.188;5.712;2024-02-28T06:35:43;99195.41;;;12.06;55.69
71795;BME280;59641;45.188;5.712;2024-02-28T06:38:09;99194.59;;;12.05;55.62
71795;BME280;59641;45.188;5.712;2024-02-28T06:40:34;99212.13;;;12.08;55.75
71795;BME280;59641;45.188;5.712;2024-02-28T06:43:00;99212.72;;;12.10;55.74
71795;BME280;59641;45.188;5.712;2024-02-28T06:45:26;99215.41;;;12.10;55.77
71795;BME280;59641;45.188;5.712;2024-02-28T06:47:51;99213.53;;;12.10;55.55
71795;BME280;59641;45.188;5.712;2024-02-28T06:50:17;99215.41;;;12.10;55.45
71795;BME280;59641;45.188;5.712;2024-02-28T06:52:42;99220.19;;;12.08;55.52
71795;BME280;59641;45.188;5.712;2024-02-28T06:55:08;99224.03;;;12.12;55.78
71795;BME280;59641;45.188;5.712;2024-02-28T06:57:37;99231.06;;;12.13;55.60
71795;BME280;59641;45.188;5.712;2024-02-28T07:00:07;99225.44;;;12.14;55.48
71795;BME280;59641;45.188;5.712;2024-02-28T07:02:44;99222.63;;;12.09;55.52
71795;BME280;59641;45.188;5.712;2024-02-28T07:05:10;99236.06;;;12.09;55.85
71795;BME280;59641;45.188;5.712;2024-02-28T07:07:36;99234.06;;;12.05;55.78
71795;BME280;59641;45.188;5.712;2024-02-28T07:10:04;99247.31;;;12.06;55.85
71795;BME280;59641;45.188;5.712;2024-02-28T07:12:30;99242.75;;;12.07;55.83
71795;BME280;59641;45.188;5.712;2024-02-28T07:14:55;99243.00;;;12.05;55.81
71795;BME280;59641;45.188;5.712;2024-02-28T07:17:20;99241.34;;;12.04;55.86
71795;BME280;59641;45.188;5.712;2024-02-28T07:19:46;99236.78;;;12.05;55.88
71795;BME280;59641;45.188;5.712;2024-02-28T07:22:11;99240.06;;;12.07;55.91
71795;BME280;59641;45.188;5.712;2024-02-28T07:24:36;99247.91;;;12.08;55.92
71795;BME280;59641;45.188;5.712;2024-02-28T07:27:02;99247.91;;;12.08;55.73
71795;BME280;59641;45.188;5.712;2024-02-28T07:29:27;99248.94;;;12.07;55.83
71795;BME280;59641;45.188;5.712;2024-02-28T07:31:53;99243.81;;;12.06;55.70
71795;BME280;59641;45.188;5.712;2024-02-28T07:34:19;99244.28;;;12.03;55.91
71795;BME280;59641;45.188;5.712;2024-02-28T07:36:44;99250.09;;;12.00;55.89
71795;BME280;59641;45.188;5.712;2024-02-28T07:39:09;99250.34;;;11.98;55.92
71795;BME280;59641;45.188;5.712;2024-02-28T07:41:40;99251.84;;;11.94;55.74
71795;BME280;59641;45.188;5.712;2024-02-28T07:44:06;99259.53;;;11.90;56.22
71795;BME280;59641;45.188;5.712;2024-02-28T07:46:32;99264.94;;;11.90;56.16
71795;BME280;59641;45.188;5.712;2024-02-28T07:48:58;99260.03;;;11.87;56.31
71795;BME280;59641;45.188;5.712;2024-02-28T07:51:23;99264.19;;;11.83;56.18
71795;BME280;59641;45.188;5.712;2024-02-28T07:53:48;99276.81;;;11.83;56.22
71795;BME280;59641;45.188;5.712;2024-02-28T07:56:20;99275.19;;;11.82;56.25
71795;BME280;59641;45.188;5.712;2024-02-28T07:58:46;99285.00;;;11.76;56.33
71795;BME280;59641;45.188;5.712;2024-02-28T08:01:12;99278.44;;;11.72;56.60
71795;BME280;59641;45.188;5.712;2024-02-28T08:03:37;99286.34;;;11.67;56.75
71795;BME280;59641;45.188;5.712;2024-02-28T08:06:03;99285.31;;;11.68;56.93
71795;BME280;59641;45.188;5.712;2024-02-28T08:08:28;99293.22;;;11.63;57.04
71795;BME280;59641;45.188;5.712;2024-02-28T08:10:54;99303.38;;;11.61;56.95
71795;BME280;59641;45.188;5.712;2024-02-28T08:13:19;99300.34;;;11.57;56.96
71795;BME280;59641;45.188;5.712;2024-02-28T08:15:45;99312.72;;;11.58;57.03
71795;BME280;59641;45.188;5.712;2024-02-28T08:18:10;99319.38;;;11.56;57.19
71795;BME280;59641;45.188;5.712;2024-02-28T08:20:38;99328.50;;;11.55;57.32
71795;BME280;59641;45.188;5.712;2024-02-28T08:23:05;99326.50;;;11.50;57.21
71795;BME280;59641;45.188;5.712;2024-02-28T08:25:30;99325.06;;;11.47;57.43
71795;BME280;59641;45.188;5.712;2024-02-28T08:27:55;99325.91;;;11.48;57.39
71795;BME280;59641;45.188;5.712;2024-02-28T08:30:21;99320.53;;;11.48;57.26
71795;BME280;59641;45.188;5.712;2024-02-28T08:32:47;99330.81;;;11.51;57.30
71795;BME280;59641;45.188;5.712;2024-02-28T08:35:12;99329.31;;;11.55;57.24
71795;BME280;59641;45.188;5.712;2024-02-28T08:37:40;99334.22;;;11.58;57.30
71795;BME280;59641;45.188;5.712;2024-02-28T08:40:07;99334.81;;;11.60;57.25
71795;BME280;59641;45.188;5.712;2024-02-28T08:42:32;99333.75;;;11.61;57.31
71795;BME280;59641;45.188;5.712;2024-02-28T08:44:58;99340.53;;;11.64;57.16
71795;BME280;59641;45.188;5.712;2024-02-28T08:47:25;99338.91;;;11.63;57.16
71795;BME280;59641;45.188;5.712;2024-02-28T08:49:54;99337.88;;;11.64;57.30
71795;BME280;59641;45.188;5.712;2024-02-28T08:52:20;99350.88;;;11.67;57.10
71795;BME280;59641;45.188;5.712;2024-02-28T08:54:46;99342.56;;;11.68;56.95
71795;BME280;59641;45.188;5.712;2024-02-28T08:57:12;99351.47;;;11.69;56.95
71795;BME280;59641;45.188;5.712;2024-02-28T08:59:37;99342.69;;;11.73;56.77
71795;BME280;59641;45.188;5.712;2024-02-28T09:02:03;99358.38;;;11.77;56.87
71795;BME280;59641;45.188;5.712;2024-02-28T09:04:29;99355.69;;;11.77;56.96
71795;BME280;59641;45.188;5.712;2024-02-28T09:06:54;99360.63;;;11.80;56.91
71795;BME280;59641;45.188;5.712;2024-02-28T09:09:19;99357.72;;;11.81;56.91
71795;BME280;59641;45.188;5.712;2024-02-28T09:11:45;99366.13;;;11.85;56.76
71795;BME280;59641;45.188;5.712;2024-02-28T09:14:10;99360.31;;;11.88;56.64
71795;BME280;59641;45.188;5.712;2024-02-28T09:16:35;99354.13;;;11.87;56.58
71795;BME280;59641;45.188;5.712;2024-02-28T09:19:02;99364.06;;;11.87;56.42
71795;BME280;59641;45.188;5.712;2024-02-28T09:21:28;99363.44;;;11.85;56.36
71795;BME280;59641;45.188;5.712;2024-02-28T09:23:53;99366.13;;;11.85;56.33
71795;BME280;59641;45.188;5.712;2024-02-28T09:26:18;99367.19;;;11.84;56.15
71795;BME280;59641;45.188;5.712;2024-02-28T09:28:43;99373.59;;;11.83;56.22
71795;BME280;59641;45.188;5.712;2024-02-28T09:31:09;99375.47;;;11.82;56.05
71795;BME280;59641;45.188;5.712;2024-02-28T09:33:34;99368.59;;;11.86;56.33
71795;BME280;59641;45.188;5.712;2024-02-28T09:36:02;99368.81;;;11.85;56.29
71795;BME280;59641;45.188;5.712;2024-02-28T09:38:28;99385.75;;;11.85;56.11
71795;BME280;59641;45.188;5.712;2024-02-28T09:40:54;99379.56;;;11.85;56.21
71795;BME280;59641;45.188;5.712;2024-02-28T09:43:30;99373.97;;;11.86;56.09
71795;BME280;59641;45.188;5.712;2024-02-28T09:46:03;99375.00;;;11.85;56.58
71795;BME280;59641;45.188;5.712;2024-02-28T09:48:29;99383.06;;;11.85;56.25
71795;BME280;59641;45.188;5.712;2024-02-28T09:50:56;99384.34;;;11.83;56.23
71795;BME280;59641;45.188;5.712;2024-02-28T09:53:22;99381.91;;;11.81;56.02
71795;BME280;59641;45.188;5.712;2024-02-28T09:55:49;99390.31;;;11.85;56.27
71795;BME280;59641;45.188;5.712;2024-02-28T09:58:18;99391.97;;;11.86;56.23
71795;BME280;59641;45.188;5.712;2024-02-28T10:00:44;99399.44;;;11.84;56.18
71795;BME280;59641;45.188;5.712;2024-02-28T10:03:14;99388.69;;;11.84;55.87
71795;BME280;59641;45.188;5.712;2024-02-28T10:05:42;99401.53;;;11.82;55.86
71795;BME280;59641;45.188;5.712;2024-02-28T10:08:07;99399.88;;;11.81;56.16
71795;BME280;59641;45.188;5.712;2024-02-28T10:10:36;99400.72;;;11.81;56.16
71795;BME280;59641;45.188;5.712;2024-02-28T10:13:03;99401.53;;;11.82;56.19
71795;BME280;59641;45.188;5.712;2024-02-28T10:15:28;99399.44;;;11.84;56.03
71795;BME280;59641;45.188;5.712;2024-02-28T10:17:53;99407.50;;;11.84;56.13
71795;BME280;59641;45.188;5.712;2024-02-28T10:20:19;99407.25;;;11.85;55.99
71795;BME280;59641;45.188;5.712;2024-02-28T10:22:45;99405.03;;;11.82;56.04
71795;BME280;59641;45.188;5.712;2024-02-28T10:25:10;99410.63;;;11.81;55.91
71795;BME280;59641;45.188;5.712;2024-02-28T10:27:35;99410.88;;;11.79;55.98
71795;BME280;59641;45.188;5.712;2024-02-28T10:30:03;99419.97;;;11.78;56.31
71795;BME280;59641;45.188;5.712;2024-02-28T10:32:33;99424.31;;;11.79;56.01
71795;BME280;59641;45.188;5.712;2024-02-28T10:35:02;99424.31;;;11.79;55.92
71795;BME280;59641;45.188;5.712;2024-02-28T10:37:32;99425.34;;;11.78;56.17
71795;BME280;59641;45.188;5.712;2024-02-28T10:39:58;99430.16;;;11.76;56.08
71795;BME280;59641;45.188;5.712;2024-02-28T10:42:25;99425.81;;;11.75;56.15
71795;BME280;59641;45.188;5.712;2024-02-28T10:44:52;99426.28;;;11.72;56.00
71795;BME280;59641;45.188;5.712;2024-02-28T10:47:18;99428.56;;;11.68;55.97
71795;BME280;59641;45.188;5.712;2024-02-28T10:49:43;99435.16;;;11.72;56.15
71795;BME280;59641;45.188;5.712;2024-02-28T10:52:11;99437.84;;;11.72;56.10
71795;BME280;59641;45.188;5.712;2024-02-28T10:54:40;99430.84;;;11.71;56.13
71795;BME280;59641;45.188;5.712;2024-02-28T10:57:07;99437.84;;;11.72;56.16
71795;BME280;59641;45.188;5.712;2024-02-28T10:59:35;99437.38;;;11.76;56.16
71795;BME280;59641;45.188;5.712;2024-02-28T11:02:02;99444.63;;;11.75;56.49
71795;BME280;59641;45.188;5.712;2024-02-28T11:04:28;99439.25;;;11.75;56.17
71795;BME280;59641;45.188;5.712;2024-02-28T11:06:55;99439.03;;;11.77;56.29
71795;BME280;59641;45.188;5.712;2024-02-28T11:09:24;99440.31;;;11.74;56.07
71795;BME280;59641;45.188;5.712;2024-02-28T11:11:51;99444.84;;;11.73;56.19
71795;BME280;59641;45.188;5.712;2024-02-28T11:14:17;99444.63;;;11.75;56.30
71795;BME280;59641;45.188;5.712;2024-02-28T11:16:42;99446.28;;;11.76;56.42
71795;BME280;59641;45.188;5.712;2024-02-28T11:19:19;99443.34;;;11.78;56.28
71795;BME280;59641;45.188;5.712;2024-02-28T11:21:54;99461.72;;;11.81;56.41
71795;BME280;59641;45.188;5.712;2024-02-28T11:24:29;99457.41;;;11.80;56.04
71795;BME280;59641;45.188;5.712;2024-02-28T11:26:55;99454.34;;;11.76;56.23
71795;BME280;59641;45.188;5.712;2024-02-28T11:29:28;99450.00;;;11.75;56.11
71795;BME280;59641;45.188;5.712;2024-02-28T11:31:56;99453.16;;;11.72;56.41
71795;BME280;59641;45.188;5.712;2024-02-28T11:34:22;99453.97;;;11.72;56.47
71795;BME280;59641;45.188;5.712;2024-02-28T11:36:48;99458.53;;;11.72;56.36
71795;BME280;59641;45.188;5.712;2024-02-28T11:39:14;99455.03;;;11.71;56.38
71795;BME280;59641;45.188;5.712;2024-02-28T11:41:40;99454.34;;;11.76;56.41
71795;BME280;59641;45.188;5.712;2024-02-28T11:44:06;99455.16;;;11.77;56.66
71795;BME280;59641;45.188;5.712;2024-02-28T11:46:32;99450.59;;;11.77;56.26
71795;BME280;59641;45.188;5.712;2024-02-28T11:48:57;99450.00;;;11.75;56.66
71795;BME280;59641;45.188;5.712;2024-02-28T11:51:23;99451.88;;;11.75;56.56
71795;BME280;59641;45.188;5.712;2024-02-28T11:53:48;99463.91;;;11.72;56.32
71795;BME280;59641;45.188;5.712;2024-02-28T11:56:13;99451.72;;;11.69;56.53
71795;BME280;59641;45.188;5.712;2024-02-28T11:58:54;99453.59;;;11.69;56.53
71795;BME280;59641;45.188;5.712;2024-02-28T12:01:40;99452.16;;;11.66;56.54
71795;BME280;59641;45.188;5.712;2024-02-28T12:04:06;99454.28;;;11.64;56.77
71795;BME280;59641;45.188;5.712;2024-02-28T12:06:33;99456.13;;;11.64;56.88
71795;BME280;59641;45.188;5.712;2024-02-28T12:08:59;99461.50;;;11.64;56.63
71795;BME280;59641;45.188;5.712;2024-02-28T12:11:25;99458.81;;;11.64;56.58
71795;BME280;59641;45.188;5.712;2024-02-28T12:13:54;99456.97;;;11.64;56.67
71795;BME280;59641;45.188;5.712;2024-02-28T12:16:25;99455.91;;;11.65;56.59
71795;BME280;59641;45.188;5.712;2024-02-28T12:18:51;99456.38;;;11.62;56.56
71795;BME280;59641;45.188;5.712;2024-02-28T12:21:17;99461.97;;;11.61;56.41
71795;BME280;59641;45.188;5.712;2024-02-28T12:23:43;99464.84;;;11.59;56.58
71795;BME280;59641;45.188;5.712;2024-02-28T12:26:08;99468.81;;;11.57;56.76
71795;BME280;59641;45.188;5.712;2024-02-28T12:28:33;99469.06;;;11.55;56.66
71795;BME280;59641;45.188;5.712;2024-02-28T12:30:59;99475.47;;;11.54;56.96
71795;BME280;59641;45.188;5.712;2024-02-28T12:33:24;99476.50;;;11.53;56.71
71795;BME280;59641;45.188;5.712;2024-02-28T12:35:50;99473.81;;;11.53;56.72
71795;BME280;59641;45.188;5.712;2024-02-28T12:38:16;99475.69;;;11.52;56.91
71795;BME280;59641;45.188;5.712;2024-02-28T12:40:41;99472.41;;;11.50;56.78
71795;BME280;59641;45.188;5.712;2024-02-28T12:43:07;99477.56;;;11.52;56.80
71795;BME280;59641;45.188;5.712;2024-02-28T12:45:32;99478.16;;;11.54;57.12
71795;BME280;59641;45.188;5.712;2024-02-28T12:47:58;99483.31;;;11.56;57.13
71795;BME280;59641;45.188;5.712;2024-02-28T12:50:23;99482.84;;;11.59;56.91
71795;BME280;59641;45.188;5.712;2024-02-28T12:52:50;99486.34;;;11.59;56.87
71795;BME280;59641;45.188;5.712;2024-02-28T12:55:19;99486.34;;;11.59;56.93